Time;durP1;ratioP1;P1;durP2;ratioP2;P2;SDS_P1;SDS_P2;PMS_P1;PMS_P2;Temp;Humidity;BMP_temperature;BMP_pressure;BME280_temperature;BME280_humidity;BME280_pressure;Samples;Min_cycle;Max_cycle;Signal;HPM_P1;HPM_P2
2022/09/08 00:00:43;;;;;;;19.58;16.15;;;18.50;99.90;;;;;;5115402;28;20398;-70
2022/09/08 00:03:11;;;;;;;19.27;16.23;;;18.50;99.90;;;;;;5128082;28;20390;-71
2022/09/08 00:05:44;;;;;;;17.42;14.80;;;18.50;99.90;;;;;;5128461;28;20402;-70
2022/09/08 00:08:10;;;;;;;19.30;15.63;;;18.50;99.90;;;;;;5116274;27;20937;-70
2022/09/08 00:10:38;;;;;;;23.00;18.88;;;18.40;99.90;;;;;;5124056;27;20524;-71
2022/09/08 00:13:05;;;;;;;21.95;18.23;;;18.40;99.90;;;;;;5125326;27;20394;-71
2022/09/08 00:15:31;;;;;;;25.30;19.45;;;18.40;99.90;;;;;;5120741;27;20485;-71
2022/09/08 00:17:57;;;;;;;26.42;21.23;;;18.40;99.90;;;;;;5129852;27;20528;-70
2022/09/08 00:20:23;;;;;;;27.83;22.98;;;18.40;99.90;;;;;;5112039;27;20392;-71
2022/09/08 00:22:48;;;;;;;30.40;24.70;;;18.40;99.90;;;;;;5113382;27;20420;-71
2022/09/08 00:25:14;;;;;;;32.90;26.27;;;18.40;99.90;;;;;;5114091;27;20970;-70
2022/09/08 00:27:39;;;;;;;32.00;27.10;;;18.40;99.90;;;;;;5131252;27;20422;-71
2022/09/08 00:30:05;;;;;;;34.55;28.08;;;18.40;99.90;;;;;;5132063;27;20729;-71
2022/09/08 00:32:31;;;;;;;35.42;28.83;;;18.40;99.90;;;;;;5116906;27;20398;-71
2022/09/08 00:34:58;;;;;;;34.07;28.50;;;18.40;99.90;;;;;;5118494;27;20391;-71
2022/09/08 00:37:26;;;;;;;34.30;29.08;;;18.30;99.90;;;;;;5118223;27;20466;-70
2022/09/08 00:39:51;;;;;;;35.97;29.15;;;18.40;99.90;;;;;;5131477;27;20394;-71
2022/09/08 00:42:17;;;;;;;35.63;29.70;;;18.30;99.90;;;;;;5131399;27;20402;-71
2022/09/08 00:44:49;;;;;;;35.50;29.55;;;18.30;99.90;;;;;;5131469;27;20760;-71
2022/09/08 00:47:38;;;;;;;36.00;29.73;;;18.30;99.90;;;;;;5117907;27;20432;-71
2022/09/08 00:50:05;;;;;;;37.60;31.17;;;18.30;99.90;;;;;;5101518;27;20447;-70
2022/09/08 00:52:41;;;;;;;37.95;30.63;;;18.30;99.90;;;;;;5105494;27;20404;-70
2022/09/08 00:55:09;;;;;;;35.60;29.60;;;18.30;99.90;;;;;;5112293;27;20393;-71
2022/09/08 00:57:35;;;;;;;37.58;30.80;;;18.30;99.90;;;;;;5108553;28;20416;-71
2022/09/08 01:00:02;;;;;;;36.10;30.13;;;18.30;99.90;;;;;;5125422;27;20805;-71
2022/09/08 01:02:29;;;;;;;36.17;29.63;;;18.30;99.90;;;;;;5130517;27;20826;-71
2022/09/08 01:05:09;;;;;;;36.58;30.58;;;18.30;99.90;;;;;;5129658;27;20414;-71
2022/09/08 01:13:32;;;;;;;37.90;30.00;;;18.30;99.90;;;;;;5130020;27;20437;-71
2022/09/08 01:15:59;;;;;;;37.63;29.15;;;18.30;99.90;;;;;;5129983;27;20402;-71
2022/09/08 01:18:24;;;;;;;36.00;28.90;;;18.30;99.90;;;;;;5121918;27;20404;-71
2022/09/08 01:21:09;;;;;;;37.97;29.83;;;18.30;99.90;;;;;;5125854;27;20406;-71
2022/09/08 01:24:13;;;;;;;39.05;30.67;;;18.30;99.90;;;;;;5126833;27;20426;-71
2022/09/08 01:26:46;;;;;;;39.03;30.00;;;18.30;99.90;;;;;;5104327;27;20512;-71
2022/09/08 01:29:13;;;;;;;39.53;31.20;;;18.30;99.90;;;;;;5121248;27;20414;-72
2022/09/08 01:31:41;;;;;;;40.92;31.83;;;18.30;99.90;;;;;;5130568;27;20868;-71
2022/09/08 01:34:07;;;;;;;42.55;33.40;;;18.20;99.90;;;;;;5112089;27;20890;-71
2022/09/08 01:36:33;;;;;;;39.70;31.52;;;18.20;99.90;;;;;;5130395;27;20401;-71
2022/09/08 01:38:59;;;;;;;39.92;31.80;;;18.20;99.90;;;;;;5127513;27;20436;-71
2022/09/08 01:41:24;;;;;;;43.20;32.97;;;18.20;99.90;;;;;;5114104;27;20495;-71
2022/09/08 01:43:50;;;;;;;43.07;33.63;;;18.10;99.90;;;;;;5122916;27;20499;-71
2022/09/08 01:46:16;;;;;;;43.97;34.77;;;18.10;99.90;;;;;;5123704;27;20408;-71
2022/09/08 01:48:41;;;;;;;42.75;33.45;;;18.10;99.90;;;;;;5104941;27;20839;-71
2022/09/08 01:51:08;;;;;;;49.07;36.03;;;18.10;99.90;;;;;;5116210;27;20968;-70
2022/09/08 01:53:34;;;;;;;45.50;35.70;;;18.10;99.90;;;;;;5117429;27;20462;-71
2022/09/08 01:56:01;;;;;;;46.55;36.13;;;18.10;99.90;;;;;;5110026;27;20457;-71
2022/09/08 01:58:27;;;;;;;48.35;35.90;;;18.10;99.90;;;;;;5108030;27;20418;-71
2022/09/08 02:00:53;;;;;;;47.35;36.20;;;18.10;99.90;;;;;;5130358;27;20841;-71
2022/09/08 02:03:19;;;;;;;46.55;37.03;;;18.10;99.90;;;;;;5129727;27;20485;-70
2022/09/08 02:05:45;;;;;;;46.10;36.57;;;18.00;99.90;;;;;;5129795;27;20832;-72
2022/09/08 02:08:12;;;;;;;48.60;37.53;;;18.00;99.90;;;;;;5110397;27;20890;-71
2022/09/08 02:10:38;;;;;;;47.03;35.90;;;18.00;99.90;;;;;;5109878;28;20392;-71
2022/09/08 02:13:04;;;;;;;49.47;37.85;;;18.00;99.90;;;;;;5106884;28;20401;-70
2022/09/08 02:15:30;;;;;;;49.22;37.00;;;18.00;99.90;;;;;;5123391;27;20391;-71
2022/09/08 02:17:59;;;;;;;49.77;37.03;;;18.00;99.90;;;;;;5116085;27;20445;-71
2022/09/08 02:20:25;;;;;;;50.78;38.55;;;18.00;99.90;;;;;;5129086;27;20438;-70
2022/09/08 02:22:54;;;;;;;52.28;39.17;;;18.00;99.90;;;;;;5116922;27;20462;-70
2022/09/08 02:25:21;;;;;;;48.45;37.63;;;18.00;99.90;;;;;;5128398;27;21630;-71
2022/09/08 02:27:49;;;;;;;53.97;40.92;;;18.10;99.90;;;;;;5110171;27;20424;-71
2022/09/08 02:30:15;;;;;;;54.20;40.27;;;18.10;99.90;;;;;;5117715;27;20403;-71
2022/09/08 02:32:41;;;;;;;54.10;40.88;;;18.00;99.90;;;;;;5128970;27;20394;-71
2022/09/08 02:35:07;;;;;;;52.57;39.80;;;18.00;99.90;;;;;;5115604;27;20416;-71
2022/09/08 02:37:32;;;;;;;57.08;43.42;;;18.00;99.90;;;;;;5129441;27;20907;-71
2022/09/08 02:39:58;;;;;;;60.88;45.00;;;18.00;99.90;;;;;;5129071;27;20403;-71
2022/09/08 02:42:24;;;;;;;60.75;45.38;;;18.00;99.90;;;;;;5115855;27;20431;-70
2022/09/08 02:44:49;;;;;;;59.03;44.33;;;18.00;99.90;;;;;;5129165;27;20397;-71
2022/09/08 02:47:15;;;;;;;56.38;43.00;;;18.00;99.90;;;;;;5115228;27;20423;-71
2022/09/08 02:49:41;;;;;;;54.23;41.23;;;18.00;99.90;;;;;;5129295;27;20391;-71
2022/09/08 02:52:07;;;;;;;54.30;41.60;;;18.00;99.90;;;;;;5128978;27;20394;-71
2022/09/08 02:54:33;;;;;;;54.45;40.83;;;18.10;99.90;;;;;;5129058;27;20399;-71
2022/09/08 02:56:58;;;;;;;57.33;43.00;;;18.00;99.90;;;;;;5128887;27;20397;-71
2022/09/08 02:59:24;;;;;;;57.00;42.78;;;18.00;99.90;;;;;;5128393;27;20403;-71
2022/09/08 03:01:50;;;;;;;67.10;49.53;;;18.00;99.90;;;;;;5114944;27;20395;-71
2022/09/08 03:04:15;;;;;;;72.17;51.90;;;18.10;99.90;;;;;;5127828;27;20401;-71
2022/09/08 03:06:43;;;;;;;79.70;57.17;;;18.00;99.90;;;;;;5129071;27;20446;-71
2022/09/08 03:09:09;;;;;;;77.63;55.45;;;18.10;99.90;;;;;;5114808;27;20399;-71
2022/09/08 03:11:34;;;;;;;72.82;53.58;;;18.10;99.90;;;;;;5097652;27;20403;-71
2022/09/08 03:14:00;;;;;;;71.33;52.17;;;18.20;99.90;;;;;;5115344;27;20408;-70
2022/09/08 03:16:27;;;;;;;65.88;49.22;;;18.20;99.90;;;;;;5128266;27;20483;-71
2022/09/08 03:18:53;;;;;;;68.88;49.58;;;18.20;99.90;;;;;;5128736;27;20938;-71
2022/09/08 03:21:20;;;;;;;65.00;48.08;;;18.20;99.90;;;;;;5115257;28;20832;-71
2022/09/08 03:23:46;;;;;;;63.42;46.00;;;18.20;99.90;;;;;;5115280;27;20407;-71
2022/09/08 03:26:17;;;;;;;62.27;44.37;;;18.20;99.90;;;;;;5121815;28;20918;-71
2022/09/08 03:28:44;;;;;;;59.55;43.47;;;18.20;99.90;;;;;;5108955;28;20396;-71
2022/09/08 03:31:14;;;;;;;55.23;42.07;;;18.20;99.90;;;;;;5120954;28;20404;-71
2022/09/08 03:33:40;;;;;;;56.87;41.77;;;18.30;99.90;;;;;;5123619;28;20467;-71
2022/09/08 03:36:08;;;;;;;56.03;42.25;;;18.30;99.90;;;;;;5120116;28;20470;-71
2022/09/08 03:38:34;;;;;;;55.33;41.65;;;18.30;99.90;;;;;;5103809;28;20412;-71
2022/09/08 03:41:03;;;;;;;54.75;41.30;;;18.30;99.90;;;;;;5128571;27;20403;-71
2022/09/08 03:43:29;;;;;;;54.03;40.72;;;18.30;99.90;;;;;;5116280;27;20423;-71
2022/09/08 03:45:54;;;;;;;52.60;40.67;;;18.30;99.90;;;;;;5121113;27;20957;-70
2022/09/08 03:48:20;;;;;;;54.83;40.25;;;18.30;99.90;;;;;;5132197;27;20423;-70
2022/09/08 03:50:46;;;;;;;50.43;38.90;;;18.30;99.90;;;;;;5132812;27;20475;-71
2022/09/08 03:53:11;;;;;;;49.05;38.90;;;18.30;99.90;;;;;;5104946;27;20404;-71
2022/09/08 03:55:41;;;;;;;52.55;39.75;;;18.40;99.90;;;;;;5121244;27;20470;-70
2022/09/08 03:58:07;;;;;;;48.10;38.10;;;18.40;99.90;;;;;;5132522;27;20794;-71
2022/09/08 04:00:33;;;;;;;47.83;38.45;;;18.40;99.90;;;;;;5105446;27;20396;-71
2022/09/08 04:02:58;;;;;;;49.33;39.10;;;18.40;99.90;;;;;;5108421;27;20729;-71
2022/09/08 04:05:25;;;;;;;48.80;37.57;;;18.40;99.90;;;;;;5121928;27;20438;-71
2022/09/08 04:07:51;;;;;;;50.33;39.33;;;18.40;99.90;;;;;;5111495;27;20460;-71
2022/09/08 04:10:19;;;;;;;50.35;39.08;;;18.40;99.90;;;;;;5103480;27;20398;-72
2022/09/08 04:12:45;;;;;;;49.72;37.63;;;18.40;99.90;;;;;;5118906;27;20402;-72
2022/09/08 04:15:11;;;;;;;49.33;38.13;;;18.40;99.90;;;;;;5132401;27;20965;-71
2022/09/08 04:17:37;;;;;;;49.45;38.67;;;18.40;99.90;;;;;;5115743;27;20400;-70
2022/09/08 04:20:04;;;;;;;47.38;38.05;;;18.40;99.90;;;;;;5083721;28;20457;-71
2022/09/08 04:22:30;;;;;;;49.85;38.83;;;18.40;99.90;;;;;;5120658;27;20439;-71
2022/09/08 04:24:55;;;;;;;50.50;39.00;;;18.50;99.90;;;;;;5111974;27;20424;-71
2022/09/08 04:27:21;;;;;;;47.77;38.60;;;18.40;99.90;;;;;;5126545;27;20410;-71
2022/09/08 04:29:47;;;;;;;51.57;40.47;;;18.50;99.90;;;;;;5112505;27;20401;-71
2022/09/08 04:32:13;;;;;;;52.27;39.90;;;18.50;99.90;;;;;;5111093;27;20752;-71
2022/09/08 04:34:39;;;;;;;52.42;40.22;;;18.50;99.90;;;;;;5120068;27;20505;-71
2022/09/08 04:37:06;;;;;;;50.88;39.33;;;18.50;99.90;;;;;;5131499;27;20394;-71
2022/09/08 04:39:32;;;;;;;50.90;39.75;;;18.50;99.90;;;;;;5131811;27;20428;-71
2022/09/08 04:41:58;;;;;;;49.65;39.22;;;18.50;99.90;;;;;;5128039;27;20435;-71
2022/09/08 04:44:24;;;;;;;50.05;38.30;;;18.50;99.90;;;;;;5121563;27;20485;-70
2022/09/08 04:46:49;;;;;;;51.30;39.60;;;18.60;99.90;;;;;;5131430;27;20430;-71
2022/09/08 04:49:15;;;;;;;52.80;41.27;;;18.50;99.90;;;;;;5113412;27;20414;-71
2022/09/08 04:51:42;;;;;;;52.10;40.00;;;18.60;99.90;;;;;;5112574;27;20435;-71
2022/09/08 04:54:09;;;;;;;51.23;39.60;;;18.50;99.90;;;;;;5131941;27;20405;-71
2022/09/08 04:56:35;;;;;;;51.35;40.67;;;18.50;99.90;;;;;;5114789;27;20453;-71
2022/09/08 04:59:03;;;;;;;50.97;40.13;;;18.60;99.90;;;;;;5121402;27;20434;-71
2022/09/08 05:01:34;;;;;;;52.47;41.10;;;18.60;99.90;;;;;;5131301;27;20396;-71
2022/09/08 05:04:01;;;;;;;51.35;39.22;;;18.60;99.90;;;;;;5113972;27;20794;-71
2022/09/08 05:06:32;;;;;;;53.95;40.85;;;18.60;99.90;;;;;;5113701;27;20471;-71
2022/09/08 05:08:59;;;;;;;52.17;40.22;;;18.60;99.90;;;;;;5123007;27;20810;-71
2022/09/08 05:11:27;;;;;;;52.40;41.17;;;18.60;99.90;;;;;;5110722;27;20405;-71
2022/09/08 05:13:53;;;;;;;56.53;40.88;;;18.60;99.90;;;;;;5123751;27;20402;-71
2022/09/08 05:16:21;;;;;;;53.13;40.75;;;18.60;99.90;;;;;;5116605;27;20931;-71
2022/09/08 05:18:52;;;;;;;56.55;42.83;;;18.60;99.90;;;;;;5100199;27;20416;-72
2022/09/08 05:21:18;;;;;;;50.60;39.90;;;18.50;99.90;;;;;;5123937;27;20400;-70
2022/09/08 05:23:47;;;;;;;56.72;41.05;;;18.50;99.90;;;;;;5111729;27;20484;-70
2022/09/08 05:26:15;;;;;;;52.30;40.30;;;18.60;99.90;;;;;;5118418;27;20432;-71
2022/09/08 05:28:42;;;;;;;53.15;39.97;;;18.50;99.90;;;;;;5129820;27;20398;-71
2022/09/08 05:31:12;;;;;;;52.08;39.70;;;18.50;99.90;;;;;;5104936;27;20439;-71
2022/09/08 05:33:37;;;;;;;50.83;39.70;;;18.50;99.90;;;;;;5129606;27;20406;-71
2022/09/08 05:36:09;;;;;;;52.50;40.87;;;18.50;99.90;;;;;;5110815;27;20400;-71
2022/09/08 05:38:36;;;;;;;53.20;41.33;;;18.50;99.90;;;;;;5123011;27;20936;-72
2022/09/08 05:41:02;;;;;;;56.13;41.92;;;18.50;99.90;;;;;;5112675;27;20406;-70
2022/09/08 05:43:28;;;;;;;52.97;41.43;;;18.50;99.90;;;;;;5130266;27;21569;-71
2022/09/08 05:45:53;;;;;;;52.72;40.83;;;18.50;99.90;;;;;;5126133;27;20451;-71
2022/09/08 05:48:19;;;;;;;54.67;41.20;;;18.50;99.90;;;;;;5092125;28;20432;-71
2022/09/08 05:50:45;;;;;;;54.97;42.33;;;18.50;99.90;;;;;;5096566;27;20489;-70
2022/09/08 05:53:13;;;;;;;53.35;41.45;;;18.50;99.90;;;;;;5130079;27;20440;-71
2022/09/08 05:55:40;;;;;;;52.70;41.25;;;18.60;99.90;;;;;;5130080;27;20391;-71
2022/09/08 05:58:07;;;;;;;53.03;40.45;;;18.60;99.90;;;;;;5130273;27;20418;-71
2022/09/08 06:00:33;;;;;;;53.83;41.70;;;18.50;99.90;;;;;;5129828;27;20410;-70
2022/09/08 06:02:59;;;;;;;49.80;39.28;;;18.50;99.90;;;;;;5122572;27;20404;-70
2022/09/08 06:05:25;;;;;;;49.10;39.13;;;18.50;99.90;;;;;;5109230;27;20392;-71
2022/09/08 06:07:51;;;;;;;52.33;38.90;;;18.50;99.90;;;;;;5109688;27;20457;-71
2022/09/08 06:10:17;;;;;;;51.42;39.70;;;18.50;99.90;;;;;;5123567;27;20777;-70
2022/09/08 06:12:43;;;;;;;49.58;39.03;;;18.50;99.90;;;;;;5129286;27;20508;-71
2022/09/08 06:15:10;;;;;;;50.63;39.92;;;18.50;99.90;;;;;;5117177;27;20454;-71
2022/09/08 06:17:36;;;;;;;48.88;38.80;;;18.50;99.90;;;;;;5129607;27;20398;-71
2022/09/08 06:20:02;;;;;;;48.70;38.42;;;18.60;99.90;;;;;;5129624;27;21034;-70
2022/09/08 06:22:32;;;;;;;51.08;38.65;;;18.60;99.90;;;;;;5129453;27;20736;-71
2022/09/08 06:24:59;;;;;;;48.03;38.58;;;18.60;99.90;;;;;;5129129;27;20399;-71
2022/09/08 06:27:41;;;;;;;47.60;37.63;;;18.60;99.90;;;;;;5140359;27;20605;-71
2022/09/08 06:30:12;;;;;;;47.58;38.10;;;18.60;99.90;;;;;;5149763;27;20395;-72
2022/09/08 06:33:07;;;;;;;48.85;37.78;;;18.70;99.90;;;;;;5150265;27;20401;-70
2022/09/08 06:35:50;;;;;;;44.90;36.13;;;18.70;99.90;;;;;;5151372;27;20403;-70
2022/09/08 06:38:25;;;;;;;46.90;36.63;;;18.70;99.90;;;;;;5151158;27;20418;-71
2022/09/08 06:41:05;;;;;;;45.55;36.58;;;18.70;99.90;;;;;;5143166;27;20884;-72
2022/09/08 06:43:39;;;;;;;47.43;36.77;;;18.70;99.90;;;;;;5129798;27;20402;-71
2022/09/08 06:46:13;;;;;;;47.17;36.37;;;18.70;99.90;;;;;;5117256;27;20403;-71
2022/09/08 06:48:39;;;;;;;46.70;36.60;;;18.70;99.90;;;;;;5113962;27;20533;-71
2022/09/08 06:51:23;;;;;;;44.47;36.30;;;18.70;99.90;;;;;;5117725;27;20857;-70
2022/09/08 06:54:08;;;;;;;50.35;37.13;;;18.70;99.90;;;;;;5123888;27;20404;-71
2022/09/08 06:56:40;;;;;;;46.28;36.50;;;18.70;99.90;;;;;;5121774;27;20415;-71
2022/09/08 06:59:20;;;;;;;44.47;35.47;;;18.70;99.90;;;;;;5108372;28;20407;-71
2022/09/08 07:02:07;;;;;;;55.53;37.05;;;18.70;99.90;;;;;;5107943;27;20408;-72
2022/09/08 07:04:58;;;;;;;48.25;37.50;;;18.70;99.90;;;;;;5121565;27;20402;-70
2022/09/08 07:07:43;;;;;;;50.78;37.90;;;18.70;99.90;;;;;;5107803;28;20474;-71
2022/09/08 07:10:23;;;;;;;46.83;37.35;;;18.70;99.90;;;;;;5127250;27;20757;-72
2022/09/08 07:12:58;;;;;;;47.10;38.20;;;18.70;99.90;;;;;;5127637;27;20399;-70
2022/09/08 07:15:37;;;;;;;48.63;38.63;;;18.60;99.90;;;;;;5147096;27;20498;-70
2022/09/08 07:18:31;;;;;;;47.15;37.83;;;18.60;99.90;;;;;;5149060;27;20399;-72
2022/09/08 07:21:29;;;;;;;51.08;38.60;;;18.70;99.90;;;;;;5151787;27;20399;-70
2022/09/08 07:23:57;;;;;;;48.22;38.70;;;18.60;99.90;;;;;;5150777;27;20394;-71
2022/09/08 07:26:41;;;;;;;49.03;37.95;;;18.60;99.90;;;;;;5148942;27;20951;-70
2022/09/08 07:29:29;;;;;;;49.63;40.38;;;18.60;99.90;;;;;;5145134;27;20403;-71
2022/09/08 07:31:57;;;;;;;49.95;42.65;;;18.60;99.90;;;;;;5129324;27;20947;-70
2022/09/08 07:34:26;;;;;;;52.22;44.38;;;18.50;99.90;;;;;;5127295;27;20425;-71
2022/09/08 07:37:08;;;;;;;53.15;44.08;;;18.40;99.90;;;;;;5128552;28;20812;-70
2022/09/08 07:40:06;;;;;;;53.15;43.10;;;18.40;99.90;;;;;;5116459;28;20398;-70
2022/09/08 07:42:31;;;;;;;53.22;41.72;;;18.30;99.90;;;;;;5117767;28;20413;-71
2022/09/08 07:45:00;;;;;;;56.10;43.20;;;18.30;99.90;;;;;;5117385;28;20408;-71
2022/09/08 07:47:43;;;;;;;54.67;41.97;;;18.30;99.90;;;;;;5121366;28;20507;-70
2022/09/08 07:53:29;;;;;;;53.85;41.97;;;18.30;99.90;;;;;;5106616;28;20404;-71
2022/09/08 07:56:00;;;;;;;56.80;44.42;;;18.30;99.90;;;;;;5116732;28;20423;-72
2022/09/08 07:58:43;;;;;;;55.65;43.45;;;18.20;99.90;;;;;;5127779;28;20446;-71
2022/09/08 08:01:08;;;;;;;54.25;43.80;;;18.30;99.90;;;;;;5126936;28;20417;-71
2022/09/08 08:03:40;;;;;;;55.83;43.50;;;18.20;99.90;;;;;;5106399;28;20408;-71
2022/09/08 08:06:34;;;;;;;56.57;44.63;;;18.20;99.90;;;;;;5120784;27;20403;-71
2022/09/08 08:09:11;;;;;;;57.60;45.22;;;18.30;99.90;;;;;;5117661;28;20478;-70
2022/09/08 08:11:51;;;;;;;55.97;44.67;;;18.30;99.90;;;;;;5124269;28;21478;-71
2022/09/08 08:14:44;;;;;;;55.97;44.80;;;18.30;99.90;;;;;;5121345;28;20398;-72
2022/09/08 08:17:13;;;;;;;56.22;44.33;;;18.40;99.90;;;;;;5107914;28;20400;-71
2022/09/08 08:19:53;;;;;;;55.50;43.13;;;18.40;99.90;;;;;;5122029;28;20436;-71
2022/09/08 08:22:34;;;;;;;53.10;43.35;;;18.50;99.90;;;;;;5120079;28;20406;-71
2022/09/08 08:25:32;;;;;;;51.80;42.03;;;18.50;99.90;;;;;;5115906;28;20976;-71
2022/09/08 08:27:58;;;;;;;49.80;41.33;;;18.50;99.90;;;;;;5092104;28;20439;-71
2022/09/08 08:30:24;;;;;;;48.47;40.63;;;18.50;99.90;;;;;;5103022;28;20408;-71
2022/09/08 08:32:58;;;;;;;50.40;40.38;;;18.50;99.90;;;;;;5130698;27;20391;-71
2022/09/08 08:35:42;;;;;;;49.15;40.80;;;18.60;99.90;;;;;;5131852;27;20403;-71
2022/09/08 08:38:16;;;;;;;49.65;38.97;;;18.60;99.90;;;;;;5120959;27;20490;-70
2022/09/08 08:40:53;;;;;;;47.22;37.72;;;18.60;99.90;;;;;;5128349;27;20453;-72
2022/09/08 08:43:49;;;;;;;44.47;36.95;;;18.70;99.90;;;;;;5122934;27;20410;-72
2022/09/08 08:46:24;;;;;;;46.15;38.20;;;18.70;99.90;;;;;;5099129;27;20883;-71
2022/09/08 08:49:06;;;;;;;44.40;37.07;;;18.80;99.90;;;;;;5115119;27;20973;-71
2022/09/08 08:51:47;;;;;;;44.67;36.73;;;18.80;99.90;;;;;;5118575;27;20408;-71
2022/09/08 08:54:39;;;;;;;44.95;37.30;;;18.90;99.90;;;;;;5119184;27;20468;-71
2022/09/08 08:57:40;;;;;;;42.47;35.05;;;19.00;99.90;;;;;;5131150;27;20765;-71
2022/09/08 09:00:40;;;;;;;42.70;35.22;;;19.10;99.90;;;;;;5117274;27;20486;-71
2022/09/08 09:03:22;;;;;;;37.65;31.40;;;19.10;99.90;;;;;;5130156;27;20472;-71
2022/09/08 09:06:17;;;;;;;36.83;31.27;;;19.10;99.90;;;;;;5121102;27;20435;-71
2022/09/08 09:09:16;;;;;;;35.58;30.23;;;19.10;99.90;;;;;;5100241;27;20433;-71
2022/09/08 09:12:06;;;;;;;33.25;28.38;;;19.20;99.90;;;;;;5131300;27;20411;-71
2022/09/08 09:14:53;;;;;;;35.03;29.42;;;19.20;99.90;;;;;;5129523;27;20406;-71
2022/09/08 09:17:43;;;;;;;33.80;28.95;;;19.20;99.90;;;;;;5130579;27;20418;-71
2022/09/08 09:20:34;;;;;;;33.20;28.23;;;19.30;99.90;;;;;;5096705;28;20420;-72
2022/09/08 09:23:13;;;;;;;34.70;28.38;;;19.40;99.90;;;;;;5114941;27;20403;-71
2022/09/08 09:25:59;;;;;;;36.22;29.13;;;19.40;99.90;;;;;;5130600;27;20398;-71
2022/09/08 09:28:59;;;;;;;32.42;27.85;;;19.40;99.90;;;;;;5120755;27;20420;-72
2022/09/08 09:31:36;;;;;;;29.95;26.40;;;19.40;99.90;;;;;;5096642;27;20470;-71
2022/09/08 09:34:21;;;;;;;30.07;25.87;;;19.40;99.90;;;;;;5126372;27;20485;-72
2022/09/08 09:36:52;;;;;;;30.65;26.33;;;19.30;99.90;;;;;;5084433;28;20485;-70
2022/09/08 09:39:30;;;;;;;32.03;27.52;;;19.40;99.90;;;;;;5109743;28;20415;-71
2022/09/08 09:42:23;;;;;;;32.67;27.70;;;19.30;99.90;;;;;;5124312;27;20438;-71
2022/09/08 09:45:09;;;;;;;32.72;28.10;;;19.30;99.90;;;;;;5130347;27;20414;-71
2022/09/08 09:47:54;;;;;;;32.65;28.88;;;19.30;99.90;;;;;;5116838;27;20497;-71
2022/09/08 09:50:51;;;;;;;31.40;27.13;;;19.20;99.90;;;;;;5130347;27;20473;-70
2022/09/08 09:53:30;;;;;;;33.20;28.25;;;19.20;99.90;;;;;;5129911;27;20398;-71
2022/09/08 09:56:34;;;;;;;33.28;28.42;;;19.20;99.90;;;;;;5110583;27;20479;-72
2022/09/08 09:59:35;;;;;;;32.13;27.48;;;19.20;99.90;;;;;;5116901;27;20900;-71
2022/09/08 10:02:50;;;;;;;31.88;26.98;;;19.20;99.90;;;;;;5129282;27;20414;-71
2022/09/08 10:05:46;;;;;;;31.38;25.80;;;19.10;99.90;;;;;;5026688;28;20837;-71
2022/09/08 10:08:42;;;;;;;31.90;27.23;;;19.10;99.90;;;;;;5026287;28;20523;-71
2022/09/08 10:11:17;;;;;;;30.80;25.63;;;19.10;99.90;;;;;;5119268;27;20811;-71
2022/09/08 10:14:14;;;;;;;29.98;25.50;;;19.20;99.90;;;;;;5118057;27;20512;-72
2022/09/08 10:17:11;;;;;;;34.83;26.60;;;19.10;99.90;;;;;;5124010;27;20861;-71
2022/09/08 10:20:11;;;;;;;30.63;25.15;;;19.00;99.90;;;;;;5126370;27;20491;-71
2022/09/08 10:22:42;;;;;;;33.75;26.50;;;18.90;99.90;;;;;;5129577;27;20409;-71
2022/09/08 10:25:32;;;;;;;32.53;26.23;;;18.80;99.90;;;;;;5129211;27;20410;-71
2022/09/08 10:28:01;;;;;;;33.22;27.10;;;18.80;99.90;;;;;;5128759;27;20517;-72
2022/09/08 10:30:35;;;;;;;36.15;26.73;;;18.80;99.90;;;;;;5129038;27;20447;-71
2022/09/08 10:33:19;;;;;;;39.43;28.97;;;18.80;99.90;;;;;;5117050;27;20414;-71
2022/09/08 10:35:52;;;;;;;35.90;27.90;;;18.80;99.90;;;;;;5128619;27;20391;-72
2022/09/08 10:38:55;;;;;;;36.67;27.37;;;18.80;99.90;;;;;;5128358;27;20676;-72
2022/09/08 10:41:39;;;;;;;31.92;22.38;;;18.80;99.90;;;;;;5118660;27;20457;-71
2022/09/08 10:44:41;;;;;;;31.50;21.90;;;18.90;99.90;;;;;;5125387;27;20410;-71
2022/09/08 10:47:24;;;;;;;31.42;22.25;;;18.90;99.90;;;;;;5114566;27;20495;-71
2022/09/08 10:50:09;;;;;;;28.98;20.92;;;18.90;99.90;;;;;;5129228;27;20406;-72
2022/09/08 10:52:51;;;;;;;28.67;19.58;;;18.90;99.90;;;;;;5117084;27;20410;-71
2022/09/08 10:55:33;;;;;;;28.02;19.90;;;18.90;99.90;;;;;;5115661;27;20768;-72
2022/09/08 10:58:04;;;;;;;26.00;19.00;;;18.90;99.90;;;;;;5129268;27;20406;-72
2022/09/08 11:00:47;;;;;;;25.33;17.25;;;18.90;99.90;;;;;;5128443;27;20407;-71
2022/09/08 11:03:28;;;;;;;27.02;20.33;;;18.90;99.90;;;;;;5126912;27;20406;-72
2022/09/08 11:06:06;;;;;;;25.67;19.15;;;18.90;99.90;;;;;;5120335;27;20403;-72
2022/09/08 11:09:07;;;;;;;24.55;18.80;;;18.90;99.90;;;;;;5122849;27;20492;-71
2022/09/08 11:11:39;;;;;;;22.95;17.27;;;18.90;99.90;;;;;;5112316;27;20399;-71
2022/09/08 11:14:15;;;;;;;23.27;17.23;;;18.90;99.90;;;;;;5129121;27;20403;-71
2022/09/08 11:16:59;;;;;;;23.65;18.27;;;18.90;99.90;;;;;;5129168;27;20407;-72
2022/09/08 11:19:39;;;;;;;22.92;17.85;;;18.90;99.90;;;;;;5115024;27;20401;-71
2022/09/08 11:22:09;;;;;;;23.42;18.00;;;18.90;99.90;;;;;;5098478;28;20416;-72
2022/09/08 11:24:45;;;;;;;23.88;18.10;;;18.90;99.90;;;;;;5113150;27;20399;-71
2022/09/08 11:27:34;;;;;;;21.73;17.37;;;18.90;99.90;;;;;;5127135;27;20816;-71
2022/09/08 11:30:22;;;;;;;23.35;18.30;;;18.90;99.90;;;;;;5076875;28;20414;-71
2022/09/08 11:33:15;;;;;;;25.93;18.60;;;18.80;99.90;;;;;;5128446;27;20399;-71
2022/09/08 11:35:47;;;;;;;25.20;17.97;;;18.80;99.90;;;;;;5126041;28;20865;-71
2022/09/08 11:38:50;;;;;;;21.65;15.95;;;18.80;99.90;;;;;;5128547;28;20453;-71
2022/09/08 11:41:24;;;;;;;21.02;15.18;;;18.80;99.90;;;;;;5128041;28;20437;-71
2022/09/08 11:44:09;;;;;;;16.08;12.40;;;18.80;99.90;;;;;;5124789;28;20421;-71
2022/09/08 11:47:15;;;;;;;12.77;9.33;;;18.80;99.90;;;;;;5128952;27;20403;-71
2022/09/08 11:49:59;;;;;;;10.55;7.18;;;18.80;99.90;;;;;;5118044;27;20815;-71
2022/09/08 11:52:37;;;;;;;9.98;6.60;;;18.80;99.90;;;;;;5126447;28;20964;-71
2022/09/08 11:55:37;;;;;;;7.65;4.90;;;18.80;99.90;;;;;;5127808;28;20413;-71
2022/09/08 11:58:28;;;;;;;7.93;4.82;;;18.70;99.90;;;;;;5128876;28;20399;-71
2022/09/08 12:01:26;;;;;;;6.93;5.10;;;18.70;99.90;;;;;;5108129;28;20898;-70
2022/09/08 12:03:54;;;;;;;8.00;5.30;;;18.70;99.90;;;;;;5116530;27;20419;-71
2022/09/08 12:06:48;;;;;;;9.30;5.00;;;18.70;99.90;;;;;;5100758;27;20774;-71
2022/09/08 12:09:20;;;;;;;8.03;5.27;;;18.60;99.90;;;;;;5132387;27;20418;-71
2022/09/08 12:12:32;;;;;;;7.47;5.15;;;18.60;99.90;;;;;;5126894;27;20408;-71
2022/09/08 12:15:16;;;;;;;8.07;5.40;;;18.60;99.90;;;;;;5090743;27;20948;-71
2022/09/08 12:18:00;;;;;;;7.03;4.30;;;18.60;99.90;;;;;;5132142;27;20416;-72
2022/09/08 12:21:13;;;;;;;7.57;4.70;;;18.60;99.90;;;;;;5121583;27;20408;-71
2022/09/08 12:23:51;;;;;;;7.10;4.75;;;18.50;99.90;;;;;;5122734;27;20533;-71
2022/09/08 12:26:54;;;;;;;7.15;4.60;;;18.50;99.90;;;;;;5129809;27;20407;-71
2022/09/08 12:29:34;;;;;;;5.03;3.50;;;18.50;99.90;;;;;;5130970;27;20814;-71
2022/09/08 12:32:05;;;;;;;6.63;4.20;;;18.40;99.90;;;;;;5130740;27;20532;-72
2022/09/08 12:35:05;;;;;;;6.95;3.92;;;18.40;99.90;;;;;;5125019;27;20788;-71
2022/09/08 12:37:53;;;;;;;4.57;1.77;;;18.40;99.90;;;;;;5123258;27;20493;-71
2022/09/08 12:40:44;;;;;;;3.65;1.90;;;18.30;99.90;;;;;;5130644;27;20967;-71
2022/09/08 12:43:24;;;;;;;4.53;2.10;;;18.30;99.90;;;;;;5131175;27;20415;-71
2022/09/08 12:46:11;;;;;;;4.22;1.90;;;18.30;99.90;;;;;;5124410;27;20432;-71
2022/09/08 12:49:04;;;;;;;3.83;1.90;;;18.30;99.90;;;;;;5110701;27;20431;-72
2022/09/08 12:51:33;;;;;;;4.65;1.85;;;18.20;99.90;;;;;;5124029;27;20761;-71
2022/09/08 12:54:24;;;;;;;3.35;1.90;;;18.20;99.90;;;;;;5079916;28;20518;-71
2022/09/08 12:57:20;;;;;;;2.73;1.40;;;18.20;99.90;;;;;;5111398;27;20957;-71
2022/09/08 13:00:06;;;;;;;3.55;1.30;;;18.20;99.90;;;;;;5111529;27;20435;-71
2022/09/08 13:02:38;;;;;;;2.80;1.20;;;18.20;99.90;;;;;;5121780;27;20457;-71
2022/09/08 13:05:25;;;;;;;3.70;1.40;;;18.20;99.90;;;;;;5124761;27;20412;-71
2022/09/08 13:08:18;;;;;;;3.20;1.38;;;18.30;99.90;;;;;;5124930;27;20450;-71
2022/09/08 13:10:51;;;;;;;3.92;1.90;;;18.30;99.90;;;;;;5122041;27;20397;-71
2022/09/08 13:13:43;;;;;;;3.85;1.70;;;18.30;99.90;;;;;;5113380;27;20396;-71
2022/09/08 13:16:44;;;;;;;3.63;1.60;;;18.40;99.90;;;;;;5124353;27;20399;-71
2022/09/08 13:19:22;;;;;;;3.03;1.70;;;18.30;99.90;;;;;;5123886;27;20395;-72